sensor_id;sensor_type;location;lat;lon;timestamp;P1;durP1;ratioP1;P2;durP2;ratioP2
18019;SDS011;9135;48.362;10.878;2023-07-02T00:02:24;0.90;;;0.90;;
18019;SDS011;9135;48.362;10.878;2023-07-02T00:04:50;1.33;;;1.33;;
18019;SDS011;9135;48.362;10.878;2023-07-02T00:07:16;0.80;;;0.80;;
18019;SDS011;9135;48.362;10.878;2023-07-02T00:09:42;1.08;;;1.08;;
18019;SDS011;9135;48.362;10.878;2023-07-02T00:12:08;1.25;;;1.25;;
18019;SDS011;9135;48.362;10.878;2023-07-02T00:14:35;1.58;;;1.48;;
18019;SDS011;9135;48.362;10.878;2023-07-02T00:17:01;3.28;;;1.05;;
18019;SDS011;9135;48.362;10.878;2023-07-02T00:19:27;0.90;;;0.90;;
18019;SDS011;9135;48.362;10.878;2023-07-02T00:21:53;1.13;;;1.13;;
18019;SDS011;9135;48.362;10.878;2023-07-02T00:24:19;1.50;;;1.40;;
18019;SDS011;9135;48.362;10.878;2023-07-02T00:26:45;1.67;;;1.58;;
18019;SDS011;9135;48.362;10.878;2023-07-02T00:29:11;0.98;;;0.98;;
18019;SDS011;9135;48.362;10.878;2023-07-02T00:31:37;0.70;;;0.70;;
18019;SDS011;9135;48.362;10.878;2023-07-02T00:34:03;1.08;;;1.08;;
18019;SDS011;9135;48.362;10.878;2023-07-02T00:36:30;1.77;;;1.58;;
18019;SDS011;9135;48.362;10.878;2023-07-02T00:38:56;0.75;;;0.75;;
18019;SDS011;9135;48.362;10.878;2023-07-02T00:41:23;0.60;;;0.60;;
18019;SDS011;9135;48.362;10.878;2023-07-02T00:43:49;0.50;;;0.50;;
18019;SDS011;9135;48.362;10.878;2023-07-02T00:46:19;0.70;;;0.70;;
18019;SDS011;9135;48.362;10.878;2023-07-02T00:48:46;0.90;;;0.90;;
18019;SDS011;9135;48.362;10.878;2023-07-02T00:51:13;0.60;;;0.60;;
18019;SDS011;9135;48.362;10.878;2023-07-02T00:53:40;0.88;;;0.88;;
18019;SDS011;9135;48.362;10.878;2023-07-02T00:56:06;0.82;;;0.82;;
18019;SDS011;9135;48.362;10.878;2023-07-02T00:58:34;1.38;;;1.02;;
18019;SDS011;9135;48.362;10.878;2023-07-02T01:01:00;0.85;;;0.85;;
18019;SDS011;9135;48.362;10.878;2023-07-02T01:03:26;1.30;;;1.17;;
18019;SDS011;9135;48.362;10.878;2023-07-02T01:05:53;1.38;;;1.27;;
18019;SDS011;9135;48.362;10.878;2023-07-02T01:08:20;0.70;;;0.70;;
18019;SDS011;9135;48.362;10.878;2023-07-02T01:10:46;0.60;;;0.60;;
18019;SDS011;9135;48.362;10.878;2023-07-02T01:13:13;0.60;;;0.60;;
18019;SDS011;9135;48.362;10.878;2023-07-02T01:15:40;0.50;;;0.50;;
18019;SDS011;9135;48.362;10.878;2023-07-02T01:18:07;0.70;;;0.70;;
18019;SDS011;9135;48.362;10.878;2023-07-02T01:20:33;0.98;;;0.98;;
18019;SDS011;9135;48.362;10.878;2023-07-02T01:23:00;1.00;;;1.00;;
18019;SDS011;9135;48.362;10.878;2023-07-02T01:25:27;0.60;;;0.60;;
18019;SDS011;9135;48.362;10.878;2023-07-02T01:27:53;1.15;;;1.05;;
18019;SDS011;9135;48.362;10.878;2023-07-02T01:30:20;0.75;;;0.75;;
18019;SDS011;9135;48.362;10.878;2023-07-02T01:32:46;0.70;;;0.70;;
18019;SDS011;9135;48.362;10.878;2023-07-02T01:35:12;1.08;;;1.05;;
18019;SDS011;9135;48.362;10.878;2023-07-02T01:37:39;0.98;;;0.98;;
18019;SDS011;9135;48.362;10.878;2023-07-02T01:40:05;0.70;;;0.70;;
18019;SDS011;9135;48.362;10.878;2023-07-02T01:42:31;0.60;;;0.60;;
18019;SDS011;9135;48.362;10.878;2023-07-02T01:44:57;1.08;;;0.95;;
18019;SDS011;9135;48.362;10.878;2023-07-02T01:47:23;0.93;;;0.93;;
18019;SDS011;9135;48.362;10.878;2023-07-02T01:49:50;0.85;;;0.85;;
18019;SDS011;9135;48.362;10.878;2023-07-02T01:52:16;0.70;;;0.70;;
18019;SDS011;9135;48.362;10.878;2023-07-02T01:54:42;1.98;;;1.20;;
18019;SDS011;9135;48.362;10.878;2023-07-02T01:57:09;0.75;;;0.75;;
18019;SDS011;9135;48.362;10.878;2023-07-02T01:59:35;0.73;;;0.73;;
18019;SDS011;9135;48.362;10.878;2023-07-02T02:02:01;2.30;;;1.35;;
18019;SDS011;9135;48.362;10.878;2023-07-02T02:04:27;0.90;;;0.90;;
18019;SDS011;9135;48.362;10.878;2023-07-02T02:06:53;0.50;;;0.50;;
18019;SDS011;9135;48.362;10.878;2023-07-02T02:09:20;0.82;;;0.82;;
18019;SDS011;9135;48.362;10.878;2023-07-02T02:11:48;0.90;;;0.90;;
18019;SDS011;9135;48.362;10.878;2023-07-02T02:14:14;0.60;;;0.60;;
18019;SDS011;9135;48.362;10.878;2023-07-02T02:16:40;0.63;;;0.63;;
18019;SDS011;9135;48.362;10.878;2023-07-02T02:19:10;0.70;;;0.70;;
18019;SDS011;9135;48.362;10.878;2023-07-02T02:21:38;0.90;;;0.90;;
18019;SDS011;9135;48.362;10.878;2023-07-02T02:24:05;0.95;;;0.95;;
18019;SDS011;9135;48.362;10.878;2023-07-02T02:26:32;0.98;;;0.98;;
18019;SDS011;9135;48.362;10.878;2023-07-02T02:28:58;0.68;;;0.68;;
18019;SDS011;9135;48.362;10.878;2023-07-02T02:31:24;1.05;;;1.05;;
18019;SDS011;9135;48.362;10.878;2023-07-02T02:33:50;0.95;;;0.95;;
18019;SDS011;9135;48.362;10.878;2023-07-02T02:36:16;0.70;;;0.70;;
18019;SDS011;9135;48.362;10.878;2023-07-02T02:38:42;0.88;;;0.88;;
18019;SDS011;9135;48.362;10.878;2023-07-02T02:41:08;0.70;;;0.70;;
18019;SDS011;9135;48.362;10.878;2023-07-02T02:43:34;0.80;;;0.80;;
18019;SDS011;9135;48.362;10.878;2023-07-02T02:46:00;0.73;;;0.73;;
18019;SDS011;9135;48.362;10.878;2023-07-02T02:48:26;0.77;;;0.77;;
18019;SDS011;9135;48.362;10.878;2023-07-02T02:50:52;0.70;;;0.70;;
18019;SDS011;9135;48.362;10.878;2023-07-02T02:53:18;0.73;;;0.73;;
18019;SDS011;9135;48.362;10.878;2023-07-02T02:55:44;0.80;;;0.80;;
18019;SDS011;9135;48.362;10.878;2023-07-02T02:58:10;0.70;;;0.70;;
18019;SDS011;9135;48.362;10.878;2023-07-02T03:00:36;0.80;;;0.80;;
18019;SDS011;9135;48.362;10.878;2023-07-02T03:03:06;0.50;;;0.50;;
18019;SDS011;9135;48.362;10.878;2023-07-02T03:05:32;1.08;;;1.08;;
18019;SDS011;9135;48.362;10.878;2023-07-02T03:07:59;1.50;;;1.50;;
18019;SDS011;9135;48.362;10.878;2023-07-02T03:10:25;0.60;;;0.60;;
18019;SDS011;9135;48.362;10.878;2023-07-02T03:12:51;1.02;;;1.02;;
18019;SDS011;9135;48.362;10.878;2023-07-02T03:15:17;0.73;;;0.73;;
18019;SDS011;9135;48.362;10.878;2023-07-02T03:17:43;0.73;;;0.73;;
18019;SDS011;9135;48.362;10.878;2023-07-02T03:20:09;0.80;;;0.80;;
18019;SDS011;9135;48.362;10.878;2023-07-02T03:22:35;1.27;;;1.17;;
18019;SDS011;9135;48.362;10.878;2023-07-02T03:25:01;1.23;;;1.23;;
18019;SDS011;9135;48.362;10.878;2023-07-02T03:27:27;1.20;;;1.10;;
18019;SDS011;9135;48.362;10.878;2023-07-02T03:29:53;0.80;;;0.80;;
18019;SDS011;9135;48.362;10.878;2023-07-02T03:32:20;0.93;;;0.93;;
18019;SDS011;9135;48.362;10.878;2023-07-02T03:34:46;2.55;;;2.10;;
18019;SDS011;9135;48.362;10.878;2023-07-02T03:37:12;0.80;;;0.80;;
18019;SDS011;9135;48.362;10.878;2023-07-02T03:39:38;0.60;;;0.60;;
18019;SDS011;9135;48.362;10.878;2023-07-02T03:42:05;1.02;;;1.02;;
18019;SDS011;9135;48.362;10.878;2023-07-02T03:44:31;1.20;;;1.20;;
18019;SDS011;9135;48.362;10.878;2023-07-02T03:46:57;1.40;;;1.40;;
18019;SDS011;9135;48.362;10.878;2023-07-02T03:49:23;2.08;;;1.98;;
18019;SDS011;9135;48.362;10.878;2023-07-02T03:51:49;0.93;;;0.93;;
18019;SDS011;9135;48.362;10.878;2023-07-02T03:54:15;1.00;;;1.00;;
18019;SDS011;9135;48.362;10.878;2023-07-02T03:56:41;2.65;;;2.03;;
18019;SDS011;9135;48.362;10.878;2023-07-02T03:59:07;1.67;;;1.58;;
18019;SDS011;9135;48.362;10.878;2023-07-02T04:01:33;0.88;;;0.88;;
18019;SDS011;9135;48.362;10.878;2023-07-02T04:03:59;0.90;;;0.90;;
18019;SDS011;9135;48.362;10.878;2023-07-02T04:06:25;1.55;;;1.45;;
18019;SDS011;9135;48.362;10.878;2023-07-02T04:08:52;0.90;;;0.90;;
18019;SDS011;9135;48.362;10.878;2023-07-02T04:11:18;0.85;;;0.80;;
18019;SDS011;9135;48.362;10.878;2023-07-02T04:13:44;1.00;;;1.00;;
18019;SDS011;9135;48.362;10.878;2023-07-02T04:16:10;0.77;;;0.77;;
18019;SDS011;9135;48.362;10.878;2023-07-02T04:18:36;1.25;;;1.25;;
18019;SDS011;9135;48.362;10.878;2023-07-02T04:21:02;0.70;;;0.70;;
18019;SDS011;9135;48.362;10.878;2023-07-02T04:23:28;0.85;;;0.85;;
18019;SDS011;9135;48.362;10.878;2023-07-02T04:25:54;0.98;;;0.98;;
18019;SDS011;9135;48.362;10.878;2023-07-02T04:28:20;0.63;;;0.63;;
18019;SDS011;9135;48.362;10.878;2023-07-02T04:30:46;0.95;;;0.95;;
18019;SDS011;9135;48.362;10.878;2023-07-02T04:33:15;0.50;;;0.50;;
18019;SDS011;9135;48.362;10.878;2023-07-02T04:35:41;1.27;;;0.90;;
18019;SDS011;9135;48.362;10.878;2023-07-02T04:38:07;0.88;;;0.88;;
18019;SDS011;9135;48.362;10.878;2023-07-02T04:40:34;1.15;;;1.15;;
18019;SDS011;9135;48.362;10.878;2023-07-02T04:43:00;0.80;;;0.80;;
18019;SDS011;9135;48.362;10.878;2023-07-02T04:45:28;0.88;;;0.88;;
18019;SDS011;9135;48.362;10.878;2023-07-02T04:47:57;0.85;;;0.85;;
18019;SDS011;9135;48.362;10.878;2023-07-02T04:50:25;0.80;;;0.80;;
18019;SDS011;9135;48.362;10.878;2023-07-02T04:52:51;0.80;;;0.80;;
18019;SDS011;9135;48.362;10.878;2023-07-02T04:55:17;1.42;;;1.42;;
18019;SDS011;9135;48.362;10.878;2023-07-02T04:57:43;1.02;;;1.02;;
18019;SDS011;9135;48.362;10.878;2023-07-02T05:00:10;0.80;;;0.73;;
18019;SDS011;9135;48.362;10.878;2023-07-02T05:02:37;2.85;;;1.10;;
18019;SDS011;9135;48.362;10.878;2023-07-02T05:05:03;1.00;;;1.00;;
18019;SDS011;9135;48.362;10.878;2023-07-02T05:07:29;0.95;;;0.95;;
18019;SDS011;9135;48.362;10.878;2023-07-02T05:09:55;0.70;;;0.70;;
18019;SDS011;9135;48.362;10.878;2023-07-02T05:12:22;0.85;;;0.85;;
18019;SDS011;9135;48.362;10.878;2023-07-02T05:14:49;0.95;;;0.95;;
18019;SDS011;9135;48.362;10.878;2023-07-02T05:17:15;0.98;;;0.98;;
18019;SDS011;9135;48.362;10.878;2023-07-02T05:19:41;0.60;;;0.60;;
18019;SDS011;9135;48.362;10.878;2023-07-02T05:22:10;1.25;;;1.25;;
18019;SDS011;9135;48.362;10.878;2023-07-02T05:24:36;1.90;;;1.75;;
18019;SDS011;9135;48.362;10.878;2023-07-02T05:27:03;0.63;;;0.63;;
18019;SDS011;9135;48.362;10.878;2023-07-02T05:29:29;0.70;;;0.70;;
18019;SDS011;9135;48.362;10.878;2023-07-02T05:31:55;1.63;;;1.52;;
18019;SDS011;9135;48.362;10.878;2023-07-02T05:34:21;1.30;;;1.30;;
18019;SDS011;9135;48.362;10.878;2023-07-02T05:36:47;1.63;;;1.45;;
18019;SDS011;9135;48.362;10.878;2023-07-02T05:39:13;0.90;;;0.90;;
18019;SDS011;9135;48.362;10.878;2023-07-02T05:41:39;1.10;;;1.10;;
18019;SDS011;9135;48.362;10.878;2023-07-02T05:44:05;1.05;;;1.05;;
18019;SDS011;9135;48.362;10.878;2023-07-02T05:46:31;1.05;;;1.05;;
18019;SDS011;9135;48.362;10.878;2023-07-02T05:48:57;0.85;;;0.85;;
18019;SDS011;9135;48.362;10.878;2023-07-02T05:51:24;0.50;;;0.50;;
18019;SDS011;9135;48.362;10.878;2023-07-02T05:53:51;0.80;;;0.80;;
18019;SDS011;9135;48.362;10.878;2023-07-02T05:56:17;0.82;;;0.82;;
18019;SDS011;9135;48.362;10.878;2023-07-02T05:58:44;0.80;;;0.80;;
18019;SDS011;9135;48.362;10.878;2023-07-02T06:01:10;1.08;;;0.93;;
18019;SDS011;9135;48.362;10.878;2023-07-02T06:03:36;1.05;;;1.05;;
18019;SDS011;9135;48.362;10.878;2023-07-02T06:06:03;19.38;;;2.63;;
18019;SDS011;9135;48.362;10.878;2023-07-02T06:08:29;0.80;;;0.80;;
18019;SDS011;9135;48.362;10.878;2023-07-02T06:10:55;1.08;;;1.08;;
18019;SDS011;9135;48.362;10.878;2023-07-02T06:13:21;0.85;;;0.85;;
18019;SDS011;9135;48.362;10.878;2023-07-02T06:15:47;0.95;;;0.95;;
18019;SDS011;9135;48.362;10.878;2023-07-02T06:18:13;0.80;;;0.80;;
18019;SDS011;9135;48.362;10.878;2023-07-02T06:20:39;0.80;;;0.80;;
18019;SDS011;9135;48.362;10.878;2023-07-02T06:23:05;1.88;;;1.77;;
18019;SDS011;9135;48.362;10.878;2023-07-02T06:25:31;0.70;;;0.70;;
18019;SDS011;9135;48.362;10.878;2023-07-02T06:27:57;0.75;;;0.75;;
18019;SDS011;9135;48.362;10.878;2023-07-02T06:30:24;0.85;;;0.85;;
18019;SDS011;9135;48.362;10.878;2023-07-02T06:32:50;1.40;;;1.40;;
18019;SDS011;9135;48.362;10.878;2023-07-02T06:35:16;1.27;;;1.27;;
18019;SDS011;9135;48.362;10.878;2023-07-02T06:37:42;0.70;;;0.70;;
18019;SDS011;9135;48.362;10.878;2023-07-02T06:40:09;0.98;;;0.98;;
18019;SDS011;9135;48.362;10.878;2023-07-02T06:42:35;1.10;;;1.10;;
18019;SDS011;9135;48.362;10.878;2023-07-02T06:45:01;1.38;;;1.38;;
18019;SDS011;9135;48.362;10.878;2023-07-02T06:47:27;1.45;;;1.38;;
18019;SDS011;9135;48.362;10.878;2023-07-02T06:49:53;0.80;;;0.80;;
18019;SDS011;9135;48.362;10.878;2023-07-02T06:52:20;2.03;;;0.80;;
18019;SDS011;9135;48.362;10.878;2023-07-02T06:54:46;1.27;;;1.27;;
18019;SDS011;9135;48.362;10.878;2023-07-02T06:57:14;1.25;;;1.25;;
18019;SDS011;9135;48.362;10.878;2023-07-02T06:59:40;0.90;;;0.90;;
18019;SDS011;9135;48.362;10.878;2023-07-02T07:02:06;0.80;;;0.80;;
18019;SDS011;9135;48.362;10.878;2023-07-02T07:04:33;1.10;;;1.10;;
18019;SDS011;9135;48.362;10.878;2023-07-02T07:07:02;0.60;;;0.60;;
18019;SDS011;9135;48.362;10.878;2023-07-02T07:09:29;1.52;;;1.20;;
18019;SDS011;9135;48.362;10.878;2023-07-02T07:11:55;0.88;;;0.88;;
18019;SDS011;9135;48.362;10.878;2023-07-02T07:14:21;0.60;;;0.60;;
18019;SDS011;9135;48.362;10.878;2023-07-02T07:16:47;1.00;;;1.00;;
18019;SDS011;9135;48.362;10.878;2023-07-02T07:19:14;0.85;;;0.85;;
18019;SDS011;9135;48.362;10.878;2023-07-02T07:21:40;2.45;;;1.70;;
18019;SDS011;9135;48.362;10.878;2023-07-02T07:24:06;0.90;;;0.90;;
18019;SDS011;9135;48.362;10.878;2023-07-02T07:26:32;0.90;;;0.90;;
18019;SDS011;9135;48.362;10.878;2023-07-02T07:28:58;0.88;;;0.88;;
18019;SDS011;9135;48.362;10.878;2023-07-02T07:31:24;1.15;;;1.10;;
18019;SDS011;9135;48.362;10.878;2023-07-02T07:33:50;0.85;;;0.85;;
18019;SDS011;9135;48.362;10.878;2023-07-02T07:36:16;0.63;;;0.63;;
18019;SDS011;9135;48.362;10.878;2023-07-02T07:38:43;0.88;;;0.88;;
18019;SDS011;9135;48.362;10.878;2023-07-02T07:41:09;0.73;;;0.73;;
18019;SDS011;9135;48.362;10.878;2023-07-02T07:43:35;0.90;;;0.90;;
18019;SDS011;9135;48.362;10.878;2023-07-02T07:46:01;3.58;;;3.28;;
18019;SDS011;9135;48.362;10.878;2023-07-02T07:48:27;1.10;;;1.10;;
18019;SDS011;9135;48.362;10.878;2023-07-02T07:50:53;1.05;;;1.05;;
18019;SDS011;9135;48.362;10.878;2023-07-02T07:53:19;0.88;;;0.88;;
18019;SDS011;9135;48.362;10.878;2023-07-02T07:55:45;1.27;;;1.20;;
18019;SDS011;9135;48.362;10.878;2023-07-02T07:58:11;1.27;;;1.25;;
18019;SDS011;9135;48.362;10.878;2023-07-02T08:00:37;1.08;;;1.08;;
18019;SDS011;9135;48.362;10.878;2023-07-02T08:03:03;1.40;;;1.10;;
18019;SDS011;9135;48.362;10.878;2023-07-02T08:05:30;1.35;;;1.27;;
18019;SDS011;9135;48.362;10.878;2023-07-02T08:07:56;0.98;;;0.98;;
18019;SDS011;9135;48.362;10.878;2023-07-02T08:10:23;1.00;;;1.00;;
18019;SDS011;9135;48.362;10.878;2023-07-02T08:12:50;1.52;;;1.45;;
18019;SDS011;9135;48.362;10.878;2023-07-02T08:15:17;2.15;;;1.90;;
18019;SDS011;9135;48.362;10.878;2023-07-02T08:17:43;3.00;;;2.33;;
18019;SDS011;9135;48.362;10.878;2023-07-02T08:20:09;2.50;;;0.93;;
18019;SDS011;9135;48.362;10.878;2023-07-02T08:22:39;2.10;;;1.98;;
18019;SDS011;9135;48.362;10.878;2023-07-02T08:25:06;4.60;;;2.05;;
18019;SDS011;9135;48.362;10.878;2023-07-02T08:27:32;1.73;;;1.58;;
18019;SDS011;9135;48.362;10.878;2023-07-02T08:29:58;1.33;;;1.33;;
18019;SDS011;9135;48.362;10.878;2023-07-02T08:32:24;0.90;;;0.90;;
18019;SDS011;9135;48.362;10.878;2023-07-02T08:34:50;2.67;;;2.50;;
18019;SDS011;9135;48.362;10.878;2023-07-02T08:37:20;0.88;;;0.88;;
18019;SDS011;9135;48.362;10.878;2023-07-02T08:39:48;1.85;;;1.45;;
18019;SDS011;9135;48.362;10.878;2023-07-02T08:42:14;7.53;;;2.33;;
18019;SDS011;9135;48.362;10.878;2023-07-02T08:44:40;1.63;;;1.52;;
18019;SDS011;9135;48.362;10.878;2023-07-02T08:47:07;3.80;;;2.20;;
18019;SDS011;9135;48.362;10.878;2023-07-02T08:49:33;1.23;;;1.23;;
18019;SDS011;9135;48.362;10.878;2023-07-02T08:51:59;1.90;;;1.73;;
18019;SDS011;9135;48.362;10.878;2023-07-02T08:54:25;1.55;;;1.45;;
18019;SDS011;9135;48.362;10.878;2023-07-02T08:56:51;0.90;;;0.90;;
18019;SDS011;9135;48.362;10.878;2023-07-02T08:59:17;2.45;;;1.42;;
18019;SDS011;9135;48.362;10.878;2023-07-02T09:01:50;6.97;;;1.85;;
18019;SDS011;9135;48.362;10.878;2023-07-02T09:04:20;2.35;;;1.75;;
18019;SDS011;9135;48.362;10.878;2023-07-02T09:06:47;3.03;;;1.27;;
18019;SDS011;9135;48.362;10.878;2023-07-02T09:09:13;1.00;;;1.00;;
18019;SDS011;9135;48.362;10.878;2023-07-02T09:11:46;1.92;;;1.83;;
18019;SDS011;9135;48.362;10.878;2023-07-02T09:14:23;1.40;;;1.30;;
18019;SDS011;9135;48.362;10.878;2023-07-02T09:16:50;1.65;;;1.55;;
18019;SDS011;9135;48.362;10.878;2023-07-02T09:19:26;1.35;;;1.35;;
18019;SDS011;9135;48.362;10.878;2023-07-02T09:21:52;2.20;;;1.98;;
18019;SDS011;9135;48.362;10.878;2023-07-02T09:24:19;1.80;;;1.70;;
18019;SDS011;9135;48.362;10.878;2023-07-02T09:26:46;0.98;;;0.98;;
18019;SDS011;9135;48.362;10.878;2023-07-02T09:29:12;1.00;;;1.00;;
18019;SDS011;9135;48.362;10.878;2023-07-02T09:31:48;1.20;;;1.20;;
18019;SDS011;9135;48.362;10.878;2023-07-02T09:34:14;3.22;;;1.25;;
18019;SDS011;9135;48.362;10.878;2023-07-02T09:36:40;4.72;;;1.77;;
18019;SDS011;9135;48.362;10.878;2023-07-02T09:39:13;1.13;;;1.13;;
18019;SDS011;9135;48.362;10.878;2023-07-02T09:41:40;1.55;;;1.55;;
18019;SDS011;9135;48.362;10.878;2023-07-02T09:44:10;5.53;;;1.92;;
18019;SDS011;9135;48.362;10.878;2023-07-02T09:46:37;1.45;;;1.35;;
18019;SDS011;9135;48.362;10.878;2023-07-02T09:49:08;2.28;;;1.65;;
18019;SDS011;9135;48.362;10.878;2023-07-02T09:51:36;0.98;;;0.98;;
18019;SDS011;9135;48.362;10.878;2023-07-02T09:54:02;2.03;;;1.88;;
18019;SDS011;9135;48.362;10.878;2023-07-02T09:56:28;2.13;;;2.03;;
18019;SDS011;9135;48.362;10.878;2023-07-02T09:58:54;0.90;;;0.90;;
18019;SDS011;9135;48.362;10.878;2023-07-02T10:01:20;1.52;;;1.42;;
18019;SDS011;9135;48.362;10.878;2023-07-02T10:03:46;1.60;;;1.55;;
18019;SDS011;9135;48.362;10.878;2023-07-02T10:06:12;2.22;;;1.27;;
18019;SDS011;9135;48.362;10.878;2023-07-02T10:08:38;1.13;;;1.13;;
18019;SDS011;9135;48.362;10.878;2023-07-02T10:11:08;2.25;;;1.63;;
18019;SDS011;9135;48.362;10.878;2023-07-02T10:13:34;1.98;;;1.88;;
18019;SDS011;9135;48.362;10.878;2023-07-02T10:16:01;1.15;;;1.13;;
18019;SDS011;9135;48.362;10.878;2023-07-02T10:18:27;1.08;;;0.98;;
18019;SDS011;9135;48.362;10.878;2023-07-02T10:20:53;1.50;;;1.05;;
18019;SDS011;9135;48.362;10.878;2023-07-02T10:23:19;2.88;;;1.65;;
18019;SDS011;9135;48.362;10.878;2023-07-02T10:25:45;1.48;;;1.38;;
18019;SDS011;9135;48.362;10.878;2023-07-02T10:28:18;1.83;;;1.73;;
18019;SDS011;9135;48.362;10.878;2023-07-02T10:30:45;1.00;;;1.00;;
18019;SDS011;9135;48.362;10.878;2023-07-02T10:33:12;1.35;;;1.35;;
18019;SDS011;9135;48.362;10.878;2023-07-02T10:35:38;1.17;;;1.08;;
18019;SDS011;9135;48.362;10.878;2023-07-02T10:38:06;1.15;;;1.15;;
18019;SDS011;9135;48.362;10.878;2023-07-02T10:40:33;1.20;;;1.10;;
18019;SDS011;9135;48.362;10.878;2023-07-02T10:42:59;1.52;;;1.42;;
18019;SDS011;9135;48.362;10.878;2023-07-02T10:45:32;1.00;;;1.00;;
18019;SDS011;9135;48.362;10.878;2023-07-02T10:47:58;0.82;;;0.82;;
18019;SDS011;9135;48.362;10.878;2023-07-02T10:50:24;1.48;;;1.45;;
18019;SDS011;9135;48.362;10.878;2023-07-02T10:52:53;1.52;;;1.42;;
18019;SDS011;9135;48.362;10.878;2023-07-02T10:55:20;0.77;;;0.77;;
18019;SDS011;9135;48.362;10.878;2023-07-02T10:57:47;7.97;;;3.22;;
18019;SDS011;9135;48.362;10.878;2023-07-02T11:00:15;1.38;;;1.38;;
18019;SDS011;9135;48.362;10.878;2023-07-02T11:02:41;2.05;;;1.70;;
18019;SDS011;9135;48.362;10.878;2023-07-02T11:05:08;1.42;;;1.42;;
18019;SDS011;9135;48.362;10.878;2023-07-02T11:07:41;1.50;;;1.50;;
18019;SDS011;9135;48.362;10.878;2023-07-02T11:10:07;1.05;;;1.05;;
18019;SDS011;9135;48.362;10.878;2023-07-02T11:12:34;1.35;;;1.27;;
18019;SDS011;9135;48.362;10.878;2023-07-02T11:15:08;2.05;;;1.65;;
18019;SDS011;9135;48.362;10.878;2023-07-02T11:17:41;1.33;;;1.33;;
18019;SDS011;9135;48.362;10.878;2023-07-02T11:20:08;2.92;;;2.70;;
18019;SDS011;9135;48.362;10.878;2023-07-02T11:22:34;2.60;;;1.48;;
18019;SDS011;9135;48.362;10.878;2023-07-02T11:25:10;10.13;;;1.50;;
18019;SDS011;9135;48.362;10.878;2023-07-02T11:27:36;1.40;;;1.30;;
18019;SDS011;9135;48.362;10.878;2023-07-02T11:30:03;3.40;;;1.67;;
18019;SDS011;9135;48.362;10.878;2023-07-02T11:32:29;1.92;;;1.20;;
18019;SDS011;9135;48.362;10.878;2023-07-02T11:34:55;1.25;;;1.20;;
18019;SDS011;9135;48.362;10.878;2023-07-02T11:37:21;1.63;;;1.52;;
18019;SDS011;9135;48.362;10.878;2023-07-02T11:39:47;1.40;;;1.40;;
18019;SDS011;9135;48.362;10.878;2023-07-02T11:42:14;2.30;;;2.10;;
18019;SDS011;9135;48.362;10.878;2023-07-02T11:44:40;5.10;;;1.40;;
18019;SDS011;9135;48.362;10.878;2023-07-02T11:47:06;0.95;;;0.95;;
18019;SDS011;9135;48.362;10.878;2023-07-02T11:49:32;0.90;;;0.90;;
18019;SDS011;9135;48.362;10.878;2023-07-02T11:51:58;2.38;;;2.10;;
18019;SDS011;9135;48.362;10.878;2023-07-02T11:54:24;2.22;;;1.70;;
18019;SDS011;9135;48.362;10.878;2023-07-02T11:56:50;0.85;;;0.80;;
18019;SDS011;9135;48.362;10.878;2023-07-02T11:59:16;1.63;;;1.55;;
18019;SDS011;9135;48.362;10.878;2023-07-02T12:01:43;1.30;;;1.30;;
18019;SDS011;9135;48.362;10.878;2023-07-02T12:04:10;2.38;;;1.95;;
18019;SDS011;9135;48.362;10.878;2023-07-02T12:06:37;4.70;;;2.08;;
18019;SDS011;9135;48.362;10.878;2023-07-02T12:09:03;2.00;;;1.90;;
18019;SDS011;9135;48.362;10.878;2023-07-02T12:11:29;1.42;;;1.35;;
18019;SDS011;9135;48.362;10.878;2023-07-02T12:13:55;2.67;;;2.38;;
18019;SDS011;9135;48.362;10.878;2023-07-02T12:16:21;1.15;;;1.15;;
18019;SDS011;9135;48.362;10.878;2023-07-02T12:18:47;5.72;;;2.40;;
18019;SDS011;9135;48.362;10.878;2023-07-02T12:21:13;2.92;;;2.65;;
18019;SDS011;9135;48.362;10.878;2023-07-02T12:23:40;4.15;;;2.40;;
18019;SDS011;9135;48.362;10.878;2023-07-02T12:26:06;2.00;;;1.75;;
18019;SDS011;9135;48.362;10.878;2023-07-02T12:28:32;2.22;;;1.83;;
18019;SDS011;9135;48.362;10.878;2023-07-02T12:30:58;2.05;;;1.83;;
18019;SDS011;9135;48.362;10.878;2023-07-02T12:33:24;2.42;;;1.90;;
18019;SDS011;9135;48.362;10.878;2023-07-02T12:35:50;2.58;;;2.13;;
18019;SDS011;9135;48.362;10.878;2023-07-02T12:38:16;3.30;;;3.00;;
18019;SDS011;9135;48.362;10.878;2023-07-02T12:40:42;3.67;;;2.17;;
18019;SDS011;9135;48.362;10.878;2023-07-02T12:43:08;2.95;;;2.38;;
18019;SDS011;9135;48.362;10.878;2023-07-02T12:45:35;2.22;;;2.08;;
18019;SDS011;9135;48.362;10.878;2023-07-02T12:48:01;2.88;;;2.45;;
18019;SDS011;9135;48.362;10.878;2023-07-02T12:50:27;2.92;;;2.45;;
18019;SDS011;9135;48.362;10.878;2023-07-02T12:52:53;2.83;;;2.13;;
18019;SDS011;9135;48.362;10.878;2023-07-02T12:55:19;3.78;;;2.10;;
18019;SDS011;9135;48.362;10.878;2023-07-02T12:57:45;2.63;;;2.20;;
18019;SDS011;9135;48.362;10.878;2023-07-02T13:00:11;2.08;;;1.88;;
18019;SDS011;9135;48.362;10.878;2023-07-02T13:02:37;4.57;;;3.00;;
18019;SDS011;9135;48.362;10.878;2023-07-02T13:05:03;2.65;;;2.13;;
18019;SDS011;9135;48.362;10.878;2023-07-02T13:07:29;9.40;;;3.38;;
18019;SDS011;9135;48.362;10.878;2023-07-02T13:09:55;3.22;;;2.20;;
18019;SDS011;9135;48.362;10.878;2023-07-02T13:12:21;3.92;;;3.13;;
18019;SDS011;9135;48.362;10.878;2023-07-02T13:14:48;3.92;;;3.30;;
18019;SDS011;9135;48.362;10.878;2023-07-02T13:17:14;2.92;;;2.47;;
18019;SDS011;9135;48.362;10.878;2023-07-02T13:19:40;2.42;;;2.25;;
18019;SDS011;9135;48.362;10.878;2023-07-02T13:22:06;7.40;;;3.60;;
18019;SDS011;9135;48.362;10.878;2023-07-02T13:24:32;3.88;;;3.50;;
18019;SDS011;9135;48.362;10.878;2023-07-02T13:27:00;3.60;;;2.80;;
18019;SDS011;9135;48.362;10.878;2023-07-02T13:29:27;5.28;;;3.33;;
18019;SDS011;9135;48.362;10.878;2023-07-02T13:31:53;4.57;;;4.10;;
18019;SDS011;9135;48.362;10.878;2023-07-02T13:34:19;3.63;;;2.65;;
18019;SDS011;9135;48.362;10.878;2023-07-02T13:36:45;4.45;;;3.85;;
18019;SDS011;9135;48.362;10.878;2023-07-02T13:39:11;4.40;;;3.88;;
18019;SDS011;9135;48.362;10.878;2023-07-02T13:41:37;6.28;;;3.33;;
18019;SDS011;9135;48.362;10.878;2023-07-02T13:44:03;6.30;;;4.07;;
18019;SDS011;9135;48.362;10.878;2023-07-02T13:46:30;6.15;;;2.92;;
18019;SDS011;9135;48.362;10.878;2023-07-02T13:48:56;5.10;;;3.60;;
18019;SDS011;9135;48.362;10.878;2023-07-02T13:51:22;3.53;;;2.83;;
18019;SDS011;9135;48.362;10.878;2023-07-02T13:53:48;6.82;;;3.35;;
18019;SDS011;9135;48.362;10.878;2023-07-02T13:56:14;3.92;;;3.22;;
18019;SDS011;9135;48.362;10.878;2023-07-02T13:59:14;4.63;;;2.97;;
18019;SDS011;9135;48.362;10.878;2023-07-02T14:01:32;6.80;;;3.10;;
18019;SDS011;9135;48.362;10.878;2023-07-02T14:03:59;4.78;;;3.40;;
18019;SDS011;9135;48.362;10.878;2023-07-02T14:06:25;6.78;;;3.15;;
18019;SDS011;9135;48.362;10.878;2023-07-02T14:08:51;4.82;;;3.95;;
18019;SDS011;9135;48.362;10.878;2023-07-02T14:11:18;6.22;;;2.92;;
18019;SDS011;9135;48.362;10.878;2023-07-02T14:13:44;4.50;;;1.85;;
18019;SDS011;9135;48.362;10.878;2023-07-02T14:16:10;2.30;;;2.10;;
18019;SDS011;9135;48.362;10.878;2023-07-02T14:18:36;5.53;;;4.63;;
18019;SDS011;9135;48.362;10.878;2023-07-02T14:21:02;6.75;;;3.38;;
18019;SDS011;9135;48.362;10.878;2023-07-02T14:23:28;5.28;;;3.20;;
18019;SDS011;9135;48.362;10.878;2023-07-02T14:25:54;5.60;;;4.13;;
18019;SDS011;9135;48.362;10.878;2023-07-02T14:28:21;6.28;;;2.72;;
18019;SDS011;9135;48.362;10.878;2023-07-02T14:30:47;3.78;;;3.38;;
18019;SDS011;9135;48.362;10.878;2023-07-02T14:33:14;5.65;;;4.25;;
18019;SDS011;9135;48.362;10.878;2023-07-02T14:35:40;6.45;;;3.47;;
18019;SDS011;9135;48.362;10.878;2023-07-02T14:38:06;5.57;;;4.28;;
18019;SDS011;9135;48.362;10.878;2023-07-02T14:40:32;3.90;;;3.08;;
18019;SDS011;9135;48.362;10.878;2023-07-02T14:42:58;2.70;;;2.40;;
18019;SDS011;9135;48.362;10.878;2023-07-02T14:45:24;7.22;;;4.30;;